sensor_id;sensor_type;location;lat;lon;timestamp;pressure;altitude;pressure_sealevel;temperature;humidity
6464;BME280;3265;42.694;23.282;2023-04-27T00:01:23;94335.00;;;7.89;74.13
6464;BME280;3265;42.694;23.282;2023-04-27T00:03:50;94342.19;;;7.87;73.47
6464;BME280;3265;42.694;23.282;2023-04-27T00:06:17;94325.00;;;7.68;74.40
6464;BME280;3265;42.694;23.282;2023-04-27T00:08:44;94337.13;;;7.68;75.10
6464;BME280;3265;42.694;23.282;2023-04-27T00:11:11;94325.66;;;7.57;74.40
6464;BME280;3265;42.694;23.282;2023-04-27T00:13:38;94342.22;;;7.50;75.18
6464;BME280;3265;42.694;23.282;2023-04-27T00:16:05;94319.81;;;7.30;75.61
6464;BME280;3265;42.694;23.282;2023-04-27T00:18:33;94345.44;;;7.38;76.00
6464;BME280;3265;42.694;23.282;2023-04-27T00:21:01;94346.44;;;7.37;75.94
6464;BME280;3265;42.694;23.282;2023-04-27T00:23:28;94346.25;;;7.32;75.78
6464;BME280;3265;42.694;23.282;2023-04-27T00:25:54;94346.47;;;7.31;75.95
6464;BME280;3265;42.694;23.282;2023-04-27T00:28:22;94351.63;;;7.31;75.96
6464;BME280;3265;42.694;23.282;2023-04-27T00:30:48;94346.13;;;7.14;76.21
6464;BME280;3265;42.694;23.282;2023-04-27T00:33:18;94341.53;;;7.23;76.64
6464;BME280;3265;42.694;23.282;2023-04-27T00:35:46;94346.91;;;7.21;76.47
6464;BME280;3265;42.694;23.282;2023-04-27T00:38:13;94334.81;;;7.09;76.52
6464;BME280;3265;42.694;23.282;2023-04-27T00:40:40;94340.78;;;7.09;76.10
6464;BME280;3265;42.694;23.282;2023-04-27T00:43:07;94339.19;;;7.02;76.72
6464;BME280;3265;42.694;23.282;2023-04-27T00:45:37;94339.44;;;6.94;76.82
6464;BME280;3265;42.694;23.282;2023-04-27T00:48:06;94350.19;;;6.84;77.37
6464;BME280;3265;42.694;23.282;2023-04-27T00:50:33;94326.00;;;6.72;77.25
6464;BME280;3265;42.694;23.282;2023-04-27T00:53:05;94338.28;;;6.76;77.76
6464;BME280;3265;42.694;23.282;2023-04-27T00:55:32;94342.25;;;6.72;77.75
6464;BME280;3265;42.694;23.282;2023-04-27T00:57:59;94347.84;;;6.69;77.89
6464;BME280;3265;42.694;23.282;2023-04-27T01:00:26;94336.16;;;6.60;nan
6464;BME280;3265;42.694;23.282;2023-04-27T01:02:54;94347.06;;;6.62;78.72
6464;BME280;3265;42.694;23.282;2023-04-27T01:05:21;94329.00;;;6.56;78.51
6464;BME280;3265;42.694;23.282;2023-04-27T01:07:48;94347.06;;;6.62;78.18
6464;BME280;3265;42.694;23.282;2023-04-27T01:10:17;94353.00;;;6.69;78.08
6464;BME280;3265;42.694;23.282;2023-04-27T01:12:43;94342.69;;;6.50;78.05
6464;BME280;3265;42.694;23.282;2023-04-27T01:15:10;94339.34;;;6.36;78.47
6464;BME280;3265;42.694;23.282;2023-04-27T01:17:37;94353.22;;;6.48;78.56
6464;BME280;3265;42.694;23.282;2023-04-27T01:20:05;94348.88;;;6.42;78.67
6464;BME280;3265;42.694;23.282;2023-04-27T01:22:35;94355.22;;;6.46;79.37
6464;BME280;3265;42.694;23.282;2023-04-27T01:25:04;94359.19;;;6.49;79.01
6464;BME280;3265;42.694;23.282;2023-04-27T01:27:32;94356.22;;;6.52;79.05
6464;BME280;3265;42.694;23.282;2023-04-27T01:29:59;94352.44;;;6.54;78.99
6464;BME280;3265;42.694;23.282;2023-04-27T01:32:26;94365.34;;;6.61;78.89
6464;BME280;3265;42.694;23.282;2023-04-27T01:34:53;94362.31;;;6.64;78.81
6464;BME280;3265;42.694;23.282;2023-04-27T01:37:19;94371.66;;;6.71;78.37
6464;BME280;3265;42.694;23.282;2023-04-27T01:39:46;94374.44;;;6.76;78.22
6464;BME280;3265;42.694;23.282;2023-04-27T01:42:14;94370.06;;;6.77;77.92
6464;BME280;3265;42.694;23.282;2023-04-27T01:44:41;94364.50;;;6.73;78.13
6464;BME280;3265;42.694;23.282;2023-04-27T01:47:08;94376.44;;;6.74;77.99
6464;BME280;3265;42.694;23.282;2023-04-27T01:49:35;94372.06;;;6.75;77.80
6464;BME280;3265;42.694;23.282;2023-04-27T01:52:02;94377.63;;;6.72;77.77
6464;BME280;3265;42.694;23.282;2023-04-27T01:54:29;94373.25;;;6.72;77.91
6464;BME280;3265;42.694;23.282;2023-04-27T01:56:55;94376.44;;;6.74;77.89
6464;BME280;3265;42.694;23.282;2023-04-27T01:59:24;94369.09;;;6.71;77.88
6464;BME280;3265;42.694;23.282;2023-04-27T02:01:51;94373.66;;;6.56;77.92
6464;BME280;3265;42.694;23.282;2023-04-27T02:04:18;94359.19;;;6.42;78.16
6464;BME280;3265;42.694;23.282;2023-04-27T02:06:45;94377.22;;;6.55;78.19
6464;BME280;3265;42.694;23.282;2023-04-27T02:09:12;94373.25;;;6.53;77.75
6464;BME280;3265;42.694;23.282;2023-04-27T02:11:38;94376.66;;;6.60;77.76
6464;BME280;3265;42.694;23.282;2023-04-27T02:14:05;94359.19;;;6.29;77.60
6464;BME280;3265;42.694;23.282;2023-04-27T02:16:34;94367.34;;;6.46;77.99
6464;BME280;3265;42.694;23.282;2023-04-27T02:19:00;94379.44;;;6.52;77.79
6464;BME280;3265;42.694;23.282;2023-04-27T02:21:27;94386.78;;;6.55;78.17
6464;BME280;3265;42.694;23.282;2023-04-27T02:23:54;94386.78;;;6.55;77.67
6464;BME280;3265;42.694;23.282;2023-04-27T02:26:21;94359.19;;;6.42;77.74
6464;BME280;3265;42.694;23.282;2023-04-27T02:28:53;94373.28;;;6.59;77.27
6464;BME280;3265;42.694;23.282;2023-04-27T02:31:20;94380.63;;;6.69;77.00
6464;BME280;3265;42.694;23.282;2023-04-27T02:33:49;94388.53;;;6.74;76.65
6464;BME280;3265;42.694;23.282;2023-04-27T02:36:15;94390.31;;;6.80;76.58
6464;BME280;3265;42.694;23.282;2023-04-27T02:38:42;94379.81;;;6.75;76.11
6464;BME280;3265;42.694;23.282;2023-04-27T02:41:09;94386.19;;;6.66;76.59
6464;BME280;3265;42.694;23.282;2023-04-27T02:43:36;94391.75;;;6.69;76.49
6464;BME280;3265;42.694;23.282;2023-04-27T02:46:03;94383.78;;;6.64;76.68
6464;BME280;3265;42.694;23.282;2023-04-27T02:48:30;94395.91;;;6.57;76.81
6464;BME280;3265;42.694;23.282;2023-04-27T02:51:02;94388.78;;;6.40;76.86
6464;BME280;3265;42.694;23.282;2023-04-27T02:53:28;94393.34;;;6.38;76.94
6464;BME280;3265;42.694;23.282;2023-04-27T02:55:55;94368.72;;;6.22;76.77
6464;BME280;3265;42.694;23.282;2023-04-27T02:58:22;94389.75;;;6.39;76.72
6464;BME280;3265;42.694;23.282;2023-04-27T03:00:53;94386.97;;;6.27;76.97
6464;BME280;3265;42.694;23.282;2023-04-27T03:03:20;94404.66;;;6.37;77.14
6464;BME280;3265;42.694;23.282;2023-04-27T03:05:47;94393.91;;;6.33;77.36
6464;BME280;3265;42.694;23.282;2023-04-27T03:08:15;94397.31;;;6.34;77.31
6464;BME280;3265;42.694;23.282;2023-04-27T03:10:42;94398.28;;;6.39;76.91
6464;BME280;3265;42.694;23.282;2023-04-27T03:13:08;94388.97;;;6.32;76.55
6464;BME280;3265;42.694;23.282;2023-04-27T03:15:35;94397.50;;;6.19;77.07
6464;BME280;3265;42.694;23.282;2023-04-27T03:18:03;94405.63;;;6.22;77.25
6464;BME280;3265;42.694;23.282;2023-04-27T03:20:30;94412.78;;;6.27;77.47
6464;BME280;3265;42.694;23.282;2023-04-27T03:22:57;94411.41;;;6.31;77.22
6464;BME280;3265;42.694;23.282;2023-04-27T03:25:25;94413.38;;;6.22;77.27
6464;BME280;3265;42.694;23.282;2023-04-27T03:27:52;94424.47;;;6.16;78.04
6464;BME280;3265;42.694;23.282;2023-04-27T03:30:19;94428.03;;;6.15;77.60
6464;BME280;3265;42.694;23.282;2023-04-27T03:32:46;94407.00;;;6.05;78.14
6464;BME280;3265;42.694;23.282;2023-04-27T03:35:13;94420.06;;;6.04;78.18
6464;BME280;3265;42.694;23.282;2023-04-27T03:37:40;94426.84;;;6.05;77.94
6464;BME280;3265;42.694;23.282;2023-04-27T03:40:08;94421.69;;;6.05;78.66
6464;BME280;3265;42.694;23.282;2023-04-27T03:42:36;94413.91;;;5.92;78.21
6464;BME280;3265;42.694;23.282;2023-04-27T03:45:03;94423.56;;;5.77;78.82
6464;BME280;3265;42.694;23.282;2023-04-27T03:47:30;94435.66;;;5.76;79.15
6464;BME280;3265;42.694;23.282;2023-04-27T03:49:57;94431.09;;;5.78;78.62
6464;BME280;3265;42.694;23.282;2023-04-27T03:52:24;94427.69;;;5.64;78.90
6464;BME280;3265;42.694;23.282;2023-04-27T03:54:51;94430.22;;;5.58;79.28
6464;BME280;3265;42.694;23.282;2023-04-27T03:57:18;94438.72;;;5.52;80.12
6464;BME280;3265;42.694;23.282;2023-04-27T03:59:47;94442.06;;;5.46;80.03
6464;BME280;3265;42.694;23.282;2023-04-27T04:02:14;94442.28;;;5.44;80.39
6464;BME280;3265;42.694;23.282;2023-04-27T04:04:41;94437.94;;;5.45;79.76
6464;BME280;3265;42.694;23.282;2023-04-27T04:07:08;94445.84;;;5.43;79.51
6464;BME280;3265;42.694;23.282;2023-04-27T04:09:35;94452.59;;;5.44;80.30
6464;BME280;3265;42.694;23.282;2023-04-27T04:12:02;94456.13;;;5.37;80.25
6464;BME280;3265;42.694;23.282;2023-04-27T04:14:29;94460.06;;;5.33;79.78
6464;BME280;3265;42.694;23.282;2023-04-27T04:16:57;94469.78;;;5.31;81.06
6464;BME280;3265;42.694;23.282;2023-04-27T04:19:23;94465.59;;;5.30;81.29
6464;BME280;3265;42.694;23.282;2023-04-27T04:21:50;94463.81;;;5.30;80.60
6464;BME280;3265;42.694;23.282;2023-04-27T04:24:19;94467.44;;;5.42;80.71
6464;BME280;3265;42.694;23.282;2023-04-27T04:26:45;94464.25;;;5.40;80.82
6464;BME280;3265;42.694;23.282;2023-04-27T04:29:12;94475.34;;;5.41;79.56
6464;BME280;3265;42.694;23.282;2023-04-27T04:31:39;94485.66;;;5.41;79.59
6464;BME280;3265;42.694;23.282;2023-04-27T04:34:08;94471.16;;;5.33;79.10
6464;BME280;3265;42.694;23.282;2023-04-27T04:36:34;94473.75;;;5.33;79.95
6464;BME280;3265;42.694;23.282;2023-04-27T04:39:02;94486.69;;;5.46;80.06
6464;BME280;3265;42.694;23.282;2023-04-27T04:41:29;94487.06;;;5.43;80.30
6464;BME280;3265;42.694;23.282;2023-04-27T04:43:56;94486.63;;;5.40;80.51
6464;BME280;3265;42.694;23.282;2023-04-27T04:46:24;94492.78;;;5.39;80.44
6464;BME280;3265;42.694;23.282;2023-04-27T04:48:51;94493.00;;;5.44;80.72
6464;BME280;3265;42.694;23.282;2023-04-27T04:51:19;94501.97;;;5.54;80.55
6464;BME280;3265;42.694;23.282;2023-04-27T04:53:46;94498.81;;;5.52;80.58
6464;BME280;3265;42.694;23.282;2023-04-27T04:56:13;94506.75;;;5.57;79.91
6464;BME280;3265;42.694;23.282;2023-04-27T04:58:41;94509.38;;;5.64;80.23
6464;BME280;3265;42.694;23.282;2023-04-27T05:01:08;94506.88;;;5.77;79.16
6464;BME280;3265;42.694;23.282;2023-04-27T05:03:35;94514.81;;;5.82;79.62
6464;BME280;3265;42.694;23.282;2023-04-27T05:06:02;94512.25;;;5.82;79.47
6464;BME280;3265;42.694;23.282;2023-04-27T05:08:30;94493.94;;;5.70;78.89
6464;BME280;3265;42.694;23.282;2023-04-27T05:11:14;94522.78;;;5.87;79.83
6464;BME280;3265;42.694;23.282;2023-04-27T05:13:41;94514.88;;;5.95;78.43
6464;BME280;3265;42.694;23.282;2023-04-27T05:16:08;94511.44;;;5.82;79.19
6464;BME280;3265;42.694;23.282;2023-04-27T05:18:35;94528.31;;;5.84;79.55
6464;BME280;3265;42.694;23.282;2023-04-27T05:21:19;94531.53;;;5.93;78.98
6464;BME280;3265;42.694;23.282;2023-04-27T05:23:48;94541.09;;;5.99;78.92
6464;BME280;3265;42.694;23.282;2023-04-27T05:26:16;94521.47;;;6.04;78.59
6464;BME280;3265;42.694;23.282;2023-04-27T05:28:43;94513.69;;;5.98;78.38
6464;BME280;3265;42.694;23.282;2023-04-27T05:31:26;94477.25;;;5.66;79.10
6464;BME280;3265;42.694;23.282;2023-04-27T05:33:52;94529.00;;;5.99;78.80
6464;BME280;3265;42.694;23.282;2023-04-27T05:36:24;94532.03;;;6.16;78.95
6464;BME280;3265;42.694;23.282;2023-04-27T05:38:54;94502.81;;;6.02;79.28
6464;BME280;3265;42.694;23.282;2023-04-27T05:41:29;94537.25;;;6.29;78.78
6464;BME280;3265;42.694;23.282;2023-04-27T05:43:59;94534.44;;;6.24;79.30
6464;BME280;3265;42.694;23.282;2023-04-27T05:46:39;94529.72;;;6.34;79.33
6464;BME280;3265;42.694;23.282;2023-04-27T05:49:07;94539.47;;;6.45;79.76
6464;BME280;3265;42.694;23.282;2023-04-27T05:51:42;94529.50;;;6.36;79.79
6464;BME280;3265;42.694;23.282;2023-04-27T05:54:11;94496.69;;;6.10;79.42
6464;BME280;3265;42.694;23.282;2023-04-27T05:56:38;94551.19;;;6.54;78.79
6464;BME280;3265;42.694;23.282;2023-04-27T05:59:05;94553.97;;;6.59;78.78
6464;BME280;3265;42.694;23.282;2023-04-27T06:01:32;94495.97;;;6.29;79.14
6464;BME280;3265;42.694;23.282;2023-04-27T06:03:59;94516.63;;;6.55;78.64
6464;BME280;3265;42.694;23.282;2023-04-27T06:06:27;94511.47;;;6.55;78.55
6464;BME280;3265;42.694;23.282;2023-04-27T06:08:56;94543.88;;;6.91;78.47
6464;BME280;3265;42.694;23.282;2023-04-27T06:11:25;94470.38;;;6.54;78.08
6464;BME280;3265;42.694;23.282;2023-04-27T06:13:52;94543.09;;;7.16;77.55
6464;BME280;3265;42.694;23.282;2023-04-27T06:16:19;94542.28;;;7.22;76.93
6464;BME280;3265;42.694;23.282;2023-04-27T06:18:46;94457.06;;;6.70;77.10
6464;BME280;3265;42.694;23.282;2023-04-27T06:21:13;94543.09;;;7.23;75.58
6464;BME280;3265;42.694;23.282;2023-04-27T06:23:41;94527.78;;;7.28;76.75
6464;BME280;3265;42.694;23.282;2023-04-27T06:26:08;94518.06;;;7.23;75.58
6464;BME280;3265;42.694;23.282;2023-04-27T06:28:37;94513.28;;;7.20;75.91
6464;BME280;3265;42.694;23.282;2023-04-27T06:31:04;94499.56;;;7.26;75.87
6464;BME280;3265;42.694;23.282;2023-04-27T06:33:31;94461.19;;;7.10;75.78
6464;BME280;3265;42.694;23.282;2023-04-27T06:35:59;94545.63;;;7.69;75.55
6464;BME280;3265;42.694;23.282;2023-04-27T06:38:27;94508.84;;;7.60;73.66
6464;BME280;3265;42.694;23.282;2023-04-27T06:40:54;94490.34;;;7.57;73.07
6464;BME280;3265;42.694;23.282;2023-04-27T06:43:21;94471.47;;;7.43;74.10
6464;BME280;3265;42.694;23.282;2023-04-27T06:45:49;94527.84;;;7.85;74.64
6464;BME280;3265;42.694;23.282;2023-04-27T06:48:16;94492.66;;;7.84;74.12
6464;BME280;3265;42.694;23.282;2023-04-27T06:50:43;94516.81;;;8.10;73.31
6464;BME280;3265;42.694;23.282;2023-04-27T06:53:10;94507.28;;;8.10;72.88
6464;BME280;3265;42.694;23.282;2023-04-27T06:55:37;94528.06;;;8.41;71.93
6464;BME280;3265;42.694;23.282;2023-04-27T06:58:05;94467.22;;;8.19;70.88
6464;BME280;3265;42.694;23.282;2023-04-27T07:00:32;94517.25;;;8.51;70.65
6464;BME280;3265;42.694;23.282;2023-04-27T07:03:00;94515.81;;;8.55;71.18
6464;BME280;3265;42.694;23.282;2023-04-27T07:05:29;94529.72;;;8.61;70.26
6464;BME280;3265;42.694;23.282;2023-04-27T07:08:00;94460.03;;;8.21;70.93
6464;BME280;3265;42.694;23.282;2023-04-27T07:10:27;94497.66;;;8.62;69.60
6464;BME280;3265;42.694;23.282;2023-04-27T07:13:02;94483.72;;;8.63;69.75
6464;BME280;3265;42.694;23.282;2023-04-27T07:15:43;94522.91;;;8.97;70.14
6464;BME280;3265;42.694;23.282;2023-04-27T07:18:11;94495.56;;;8.77;68.98
6464;BME280;3265;42.694;23.282;2023-04-27T07:20:40;94517.50;;;8.99;69.65
6464;BME280;3265;42.694;23.282;2023-04-27T07:23:07;94488.63;;;8.95;69.01
6464;BME280;3265;42.694;23.282;2023-04-27T07:25:35;94498.09;;;9.08;68.12
6464;BME280;3265;42.694;23.282;2023-04-27T07:28:02;94526.53;;;9.39;67.43
6464;BME280;3265;42.694;23.282;2023-04-27T07:30:29;94504.00;;;9.40;66.93
6464;BME280;3265;42.694;23.282;2023-04-27T07:32:58;94538.91;;;9.62;65.88
6464;BME280;3265;42.694;23.282;2023-04-27T07:35:27;94522.63;;;9.55;65.31
6464;BME280;3265;42.694;23.282;2023-04-27T07:37:53;94517.94;;;9.63;65.73
6464;BME280;3265;42.694;23.282;2023-04-27T07:40:21;94489.00;;;9.42;64.58
6464;BME280;3265;42.694;23.282;2023-04-27T07:42:48;94533.59;;;9.75;65.67
6464;BME280;3265;42.694;23.282;2023-04-27T07:45:15;94525.53;;;9.83;64.96
6464;BME280;3265;42.694;23.282;2023-04-27T07:47:43;94497.47;;;9.74;64.42
6464;BME280;3265;42.694;23.282;2023-04-27T07:50:13;94538.63;;;10.06;63.44
6464;BME280;3265;42.694;23.282;2023-04-27T07:52:45;94496.00;;;9.96;62.57
6464;BME280;3265;42.694;23.282;2023-04-27T07:55:20;94439.88;;;9.47;62.71
6464;BME280;3265;42.694;23.282;2023-04-27T07:57:48;94530.97;;;10.11;63.47
6464;BME280;3265;42.694;23.282;2023-04-27T08:00:25;94490.69;;;9.91;63.37
6464;BME280;3265;42.694;23.282;2023-04-27T08:02:52;94491.63;;;9.96;64.18
6464;BME280;3265;42.694;23.282;2023-04-27T08:05:35;94473.69;;;9.95;63.15
6464;BME280;3265;42.694;23.282;2023-04-27T08:08:08;94533.84;;;10.40;62.88
6464;BME280;3265;42.694;23.282;2023-04-27T08:10:38;94439.00;;;9.89;63.09
6464;BME280;3265;42.694;23.282;2023-04-27T08:13:16;94474.66;;;10.12;63.91
6464;BME280;3265;42.694;23.282;2023-04-27T08:15:43;94506.38;;;10.32;63.92
6464;BME280;3265;42.694;23.282;2023-04-27T08:18:10;94485.56;;;10.20;62.86
6464;BME280;3265;42.694;23.282;2023-04-27T08:20:37;94489.66;;;10.28;61.65
6464;BME280;3265;42.694;23.282;2023-04-27T08:23:09;94531.44;;;10.56;61.85
6464;BME280;3265;42.694;23.282;2023-04-27T08:25:36;94498.00;;;10.60;62.44
6464;BME280;3265;42.694;23.282;2023-04-27T08:28:05;94498.38;;;10.63;62.05
6464;BME280;3265;42.694;23.282;2023-04-27T08:30:41;94497.91;;;10.66;63.36
6464;BME280;3265;42.694;23.282;2023-04-27T08:33:12;94454.47;;;10.44;62.44
6464;BME280;3265;42.694;23.282;2023-04-27T08:35:44;94506.34;;;10.92;62.33
6464;BME280;3265;42.694;23.282;2023-04-27T08:38:22;94460.97;;;10.64;61.85
6464;BME280;3265;42.694;23.282;2023-04-27T08:40:52;94480.19;;;10.75;61.22
6464;BME280;3265;42.694;23.282;2023-04-27T08:43:19;94431.28;;;10.31;60.23
6464;BME280;3265;42.694;23.282;2023-04-27T08:45:49;94452.25;;;10.47;61.79
6464;BME280;3265;42.694;23.282;2023-04-27T08:48:17;94527.28;;;11.08;61.51
6464;BME280;3265;42.694;23.282;2023-04-27T08:50:48;94517.34;;;11.17;59.61
6464;BME280;3265;42.694;23.282;2023-04-27T08:53:22;94480.44;;;10.85;59.81
6464;BME280;3265;42.694;23.282;2023-04-27T08:55:57;94518.84;;;11.24;59.54
6464;BME280;3265;42.694;23.282;2023-04-27T08:58:36;94528.53;;;11.17;60.02
6464;BME280;3265;42.694;23.282;2023-04-27T09:01:11;94471.44;;;10.99;60.21
6464;BME280;3265;42.694;23.282;2023-04-27T09:03:42;94440.28;;;10.58;58.90
6464;BME280;3265;42.694;23.282;2023-04-27T09:06:17;94529.88;;;11.08;59.54
6464;BME280;3265;42.694;23.282;2023-04-27T09:08:59;94416.34;;;10.56;60.46
6464;BME280;3265;42.694;23.282;2023-04-27T09:11:34;94458.44;;;10.99;58.30
6464;BME280;3265;42.694;23.282;2023-04-27T09:14:14;94508.34;;;11.54;57.16
6464;BME280;3265;42.694;23.282;2023-04-27T09:16:44;94431.19;;;10.90;57.79
6464;BME280;3265;42.694;23.282;2023-04-27T09:19:24;94487.50;;;11.31;58.26
6464;BME280;3265;42.694;23.282;2023-04-27T09:22:12;94487.28;;;11.44;58.77
6464;BME280;3265;42.694;23.282;2023-04-27T09:24:50;94526.53;;;11.66;57.90
6464;BME280;3265;42.694;23.282;2023-04-27T09:27:21;94512.16;;;11.75;57.31
6464;BME280;3265;42.694;23.282;2023-04-27T09:29:48;94508.19;;;11.95;57.82
6464;BME280;3265;42.694;23.282;2023-04-27T09:32:16;94501.91;;;12.20;55.62
6464;BME280;3265;42.694;23.282;2023-04-27T09:34:48;94509.00;;;12.24;57.15
6464;BME280;3265;42.694;23.282;2023-04-27T09:37:15;94511.22;;;12.04;56.88
6464;BME280;3265;42.694;23.282;2023-04-27T09:39:44;94506.38;;;11.96;57.11
6464;BME280;3265;42.694;23.282;2023-04-27T09:42:13;94475.03;;;11.91;56.95
6464;BME280;3265;42.694;23.282;2023-04-27T09:44:40;94504.13;;;12.28;56.63
6464;BME280;3265;42.694;23.282;2023-04-27T09:47:08;94487.63;;;12.50;55.88
6464;BME280;3265;42.694;23.282;2023-04-27T09:49:36;94482.19;;;12.52;56.44
6464;BME280;3265;42.694;23.282;2023-04-27T09:52:05;94500.06;;;12.60;54.71
6464;BME280;3265;42.694;23.282;2023-04-27T09:54:33;94466.94;;;12.04;54.99
6464;BME280;3265;42.694;23.282;2023-04-27T09:57:10;94492.38;;;12.25;55.24
6464;BME280;3265;42.694;23.282;2023-04-27T10:00:00;94487.81;;;12.61;55.30
6464;BME280;3265;42.694;23.282;2023-04-27T10:02:39;94501.41;;;12.79;53.61
6464;BME280;3265;42.694;23.282;2023-04-27T10:05:20;94498.41;;;12.71;52.19
6464;BME280;3265;42.694;23.282;2023-04-27T10:07:51;94494.47;;;12.85;52.73
6464;BME280;3265;42.694;23.282;2023-04-27T10:10:18;94483.44;;;12.94;51.74
6464;BME280;3265;42.694;23.282;2023-04-27T10:12:55;94489.09;;;12.75;52.71
6464;BME280;3265;42.694;23.282;2023-04-27T10:15:27;94495.72;;;12.66;53.53
6464;BME280;3265;42.694;23.282;2023-04-27T10:17:54;94495.56;;;12.72;53.12
6464;BME280;3265;42.694;23.282;2023-04-27T10:20:30;94496.41;;;13.06;52.96
6464;BME280;3265;42.694;23.282;2023-04-27T10:23:23;94482.13;;;13.42;51.06
6464;BME280;3265;42.694;23.282;2023-04-27T10:25:52;94497.13;;;13.51;49.58
6464;BME280;3265;42.694;23.282;2023-04-27T10:28:19;94494.63;;;13.78;50.35
6464;BME280;3265;42.694;23.282;2023-04-27T10:30:47;94484.75;;;14.02;50.01
6464;BME280;3265;42.694;23.282;2023-04-27T10:33:16;94499.22;;;14.31;50.23
6464;BME280;3265;42.694;23.282;2023-04-27T10:35:55;94499.72;;;14.55;49.62
6464;BME280;3265;42.694;23.282;2023-04-27T10:38:27;94498.75;;;14.61;48.22
6464;BME280;3265;42.694;23.282;2023-04-27T10:40:55;94497.28;;;14.70;48.48
6464;BME280;3265;42.694;23.282;2023-04-27T10:43:35;94437.16;;;14.75;45.58
6464;BME280;3265;42.694;23.282;2023-04-27T10:49:15;94493.38;;;15.31;43.57
6464;BME280;3265;42.694;23.282;2023-04-27T10:51:42;94453.75;;;14.59;42.24
6464;BME280;3265;42.694;23.282;2023-04-27T10:54:10;94497.13;;;14.55;43.19
6464;BME280;3265;42.694;23.282;2023-04-27T10:56:37;94491.19;;;14.38;43.22
6464;BME280;3265;42.694;23.282;2023-04-27T10:59:04;94489.75;;;14.52;43.22
6464;BME280;3265;42.694;23.282;2023-04-27T11:01:32;94473.84;;;14.80;43.69
6464;BME280;3265;42.694;23.282;2023-04-27T11:04:00;94492.78;;;15.24;42.70
6464;BME280;3265;42.694;23.282;2023-04-27T11:06:30;94490.63;;;15.48;42.32
6464;BME280;3265;42.694;23.282;2023-04-27T11:08:57;94494.69;;;15.70;41.85
6464;BME280;3265;42.694;23.282;2023-04-27T11:11:24;94485.81;;;15.76;42.66
6464;BME280;3265;42.694;23.282;2023-04-27T11:13:51;94472.22;;;15.79;41.66
6464;BME280;3265;42.694;23.282;2023-04-27T11:16:18;94486.00;;;16.07;41.34
6464;BME280;3265;42.694;23.282;2023-04-27T11:18:45;94485.13;;;15.96;41.64
6464;BME280;3265;42.694;23.282;2023-04-27T11:21:30;94485.31;;;15.79;41.23
6464;BME280;3265;42.694;23.282;2023-04-27T11:24:02;94498.28;;;15.54;42.58
6464;BME280;3265;42.694;23.282;2023-04-27T11:26:29;94500.59;;;15.51;42.60
6464;BME280;3265;42.694;23.282;2023-04-27T11:28:57;94493.56;;;15.24;42.39
6464;BME280;3265;42.694;23.282;2023-04-27T11:31:24;94493.22;;;15.11;43.10
6464;BME280;3265;42.694;23.282;2023-04-27T11:33:52;94499.56;;;15.20;44.17
6464;BME280;3265;42.694;23.282;2023-04-27T11:36:20;94500.22;;;15.37;42.60
6464;BME280;3265;42.694;23.282;2023-04-27T11:38:48;94507.47;;;15.25;43.35
6464;BME280;3265;42.694;23.282;2023-04-27T11:41:15;94498.47;;;15.16;42.51
6464;BME280;3265;42.694;23.282;2023-04-27T11:43:43;94490.31;;;14.81;42.61
6464;BME280;3265;42.694;23.282;2023-04-27T11:46:19;94480.44;;;14.61;43.74
6464;BME280;3265;42.694;23.282;2023-04-27T11:48:48;94508.53;;;14.97;43.25
6464;BME280;3265;42.694;23.282;2023-04-27T11:51:15;94494.00;;;15.11;42.83
6464;BME280;3265;42.694;23.282;2023-04-27T11:53:48;94493.53;;;14.88;42.92
6464;BME280;3265;42.694;23.282;2023-04-27T11:56:16;94504.97;;;14.82;43.88
6464;BME280;3265;42.694;23.282;2023-04-27T11:58:43;94512.09;;;14.86;43.66
6464;BME280;3265;42.694;23.282;2023-04-27T12:01:11;94511.16;;;14.49;43.61
6464;BME280;3265;42.694;23.282;2023-04-27T12:03:39;94509.56;;;14.43;43.57
6464;BME280;3265;42.694;23.282;2023-04-27T12:06:06;94502.00;;;14.46;43.66
6464;BME280;3265;42.694;23.282;2023-04-27T12:08:33;94477.50;;;14.31;44.46
6464;BME280;3265;42.694;23.282;2023-04-27T12:11:01;94493.53;;;14.61;43.86
6464;BME280;3265;42.694;23.282;2023-04-27T12:13:28;94508.44;;;14.87;43.49
6464;BME280;3265;42.694;23.282;2023-04-27T12:15:55;94499.22;;;14.80;43.63
6464;BME280;3265;42.694;23.282;2023-04-27T12:18:23;94506.47;;;14.72;43.12
6464;BME280;3265;42.694;23.282;2023-04-27T12:20:52;94489.53;;;14.53;44.49
6464;BME280;3265;42.694;23.282;2023-04-27T12:23:19;94496.28;;;14.76;44.52
6464;BME280;3265;42.694;23.282;2023-04-27T12:25:47;94518.38;;;14.85;43.25
6464;BME280;3265;42.694;23.282;2023-04-27T12:28:16;94521.50;;;14.60;43.41
6464;BME280;3265;42.694;23.282;2023-04-27T12:30:44;94514.53;;;14.44;44.12
6464;BME280;3265;42.694;23.282;2023-04-27T12:33:12;94532.25;;;14.64;44.65
6464;BME280;3265;42.694;23.282;2023-04-27T12:35:41;94506.91;;;14.21;43.81
6464;BME280;3265;42.694;23.282;2023-04-27T12:38:08;94519.91;;;13.94;44.65
6464;BME280;3265;42.694;23.282;2023-04-27T12:40:37;94514.59;;;13.51;45.76
6464;BME280;3265;42.694;23.282;2023-04-27T12:43:05;94506.84;;;13.39;46.34
6464;BME280;3265;42.694;23.282;2023-04-27T12:45:34;94510.41;;;13.33;47.08
6464;BME280;3265;42.694;23.282;2023-04-27T12:48:01;94498.16;;;13.17;47.23
6464;BME280;3265;42.694;23.282;2023-04-27T12:50:30;94503.84;;;13.14;47.08
6464;BME280;3265;42.694;23.282;2023-04-27T12:52:57;94506.47;;;13.14;47.73
6464;BME280;3265;42.694;23.282;2023-04-27T12:55:30;94502.34;;;13.35;47.67
6464;BME280;3265;42.694;23.282;2023-04-27T12:57:57;94508.09;;;13.53;45.98
6464;BME280;3265;42.694;23.282;2023-04-27T13:00:24;94514.91;;;13.54;45.78
6464;BME280;3265;42.694;23.282;2023-04-27T13:02:53;94515.84;;;13.65;45.69
6464;BME280;3265;42.694;23.282;2023-04-27T13:05:20;94524.00;;;13.69;45.39
6464;BME280;3265;42.694;23.282;2023-04-27T13:07:47;94493.00;;;13.55;45.19
6464;BME280;3265;42.694;23.282;2023-04-27T13:10:14;94516.63;;;13.65;45.67
6464;BME280;3265;42.694;23.282;2023-04-27T13:12:41;94514.88;;;13.71;46.68
6464;BME280;3265;42.694;23.282;2023-04-27T13:15:10;94516.69;;;13.87;44.78
6464;BME280;3265;42.694;23.282;2023-04-27T13:17:37;94502.78;;;13.82;44.67
6464;BME280;3265;42.694;23.282;2023-04-27T13:20:06;94512.31;;;13.93;45.11
6464;BME280;3265;42.694;23.282;2023-04-27T13:22:34;94502.09;;;13.91;44.64
6464;BME280;3265;42.694;23.282;2023-04-27T13:25:01;94504.44;;;13.71;44.37
6464;BME280;3265;42.694;23.282;2023-04-27T13:27:27;94502.34;;;13.51;45.61
6464;BME280;3265;42.694;23.282;2023-04-27T13:29:54;94502.97;;;13.58;45.04